sensor_id;sensor_type;location;lat;lon;timestamp;P1;durP1;ratioP1;P2;durP2;ratioP2
74967;SDS011;63523;51.880;12.630;2023-04-24T00:00:02;9.03;;;4.77;;
74967;SDS011;63523;51.880;12.630;2023-04-24T00:02:30;10.10;;;4.85;;
74967;SDS011;63523;51.880;12.630;2023-04-24T00:04:57;8.27;;;4.18;;
74967;SDS011;63523;51.880;12.630;2023-04-24T00:07:31;8.40;;;4.28;;
74967;SDS011;63523;51.880;12.630;2023-04-24T00:09:56;7.80;;;3.90;;
74967;SDS011;63523;51.880;12.630;2023-04-24T00:12:22;7.77;;;4.03;;
74967;SDS011;63523;51.880;12.630;2023-04-24T00:14:47;7.27;;;3.87;;
74967;SDS011;63523;51.880;12.630;2023-04-24T00:17:12;7.10;;;3.47;;
74967;SDS011;63523;51.880;12.630;2023-04-24T00:19:38;7.43;;;3.90;;
74967;SDS011;63523;51.880;12.630;2023-04-24T00:22:03;8.50;;;4.03;;
74967;SDS011;63523;51.880;12.630;2023-04-24T00:24:28;7.80;;;3.40;;
74967;SDS011;63523;51.880;12.630;2023-04-24T00:26:54;6.77;;;3.23;;
74967;SDS011;63523;51.880;12.630;2023-04-24T00:29:19;6.23;;;3.10;;
74967;SDS011;63523;51.880;12.630;2023-04-24T00:31:44;7.40;;;3.37;;
74967;SDS011;63523;51.880;12.630;2023-04-24T00:34:10;6.55;;;2.75;;
74967;SDS011;63523;51.880;12.630;2023-04-24T00:36:36;5.97;;;2.87;;
74967;SDS011;63523;51.880;12.630;2023-04-24T00:39:02;6.65;;;2.80;;
74967;SDS011;63523;51.880;12.630;2023-04-24T00:41:27;6.23;;;2.83;;
74967;SDS011;63523;51.880;12.630;2023-04-24T00:43:53;6.10;;;2.80;;
74967;SDS011;63523;51.880;12.630;2023-04-24T00:46:18;5.87;;;2.67;;
74967;SDS011;63523;51.880;12.630;2023-04-24T00:48:44;7.32;;;2.47;;
74967;SDS011;63523;51.880;12.630;2023-04-24T00:51:09;5.53;;;2.73;;
74967;SDS011;63523;51.880;12.630;2023-04-24T00:53:35;5.93;;;2.80;;
74967;SDS011;63523;51.880;12.630;2023-04-24T00:56:00;6.47;;;2.90;;
74967;SDS011;63523;51.880;12.630;2023-04-24T00:58:26;5.43;;;2.70;;
74967;SDS011;63523;51.880;12.630;2023-04-24T01:00:52;5.60;;;2.85;;
74967;SDS011;63523;51.880;12.630;2023-04-24T01:03:20;7.60;;;2.90;;
74967;SDS011;63523;51.880;12.630;2023-04-24T01:05:47;6.50;;;2.85;;
74967;SDS011;63523;51.880;12.630;2023-04-24T01:08:14;5.95;;;2.70;;
74967;SDS011;63523;51.880;12.630;2023-04-24T01:10:40;5.17;;;2.30;;
74967;SDS011;63523;51.880;12.630;2023-04-24T01:13:07;4.80;;;2.40;;
74967;SDS011;63523;51.880;12.630;2023-04-24T01:15:33;5.07;;;2.35;;
74967;SDS011;63523;51.880;12.630;2023-04-24T01:17:58;4.90;;;1.70;;
74967;SDS011;63523;51.880;12.630;2023-04-24T01:20:23;4.83;;;1.77;;
74967;SDS011;63523;51.880;12.630;2023-04-24T01:22:51;4.00;;;1.35;;
74967;SDS011;63523;51.880;12.630;2023-04-24T01:25:16;3.50;;;1.30;;
74967;SDS011;63523;51.880;12.630;2023-04-24T01:27:41;3.73;;;1.17;;
74967;SDS011;63523;51.880;12.630;2023-04-24T01:30:07;3.60;;;1.10;;
74967;SDS011;63523;51.880;12.630;2023-04-24T01:32:33;3.33;;;1.10;;
74967;SDS011;63523;51.880;12.630;2023-04-24T01:34:58;3.03;;;1.00;;
74967;SDS011;63523;51.880;12.630;2023-04-24T01:37:24;3.85;;;1.00;;
74967;SDS011;63523;51.880;12.630;2023-04-24T01:39:51;2.90;;;0.90;;
74967;SDS011;63523;51.880;12.630;2023-04-24T01:42:17;4.13;;;1.10;;
74967;SDS011;63523;51.880;12.630;2023-04-24T01:44:42;3.27;;;0.93;;
74967;SDS011;63523;51.880;12.630;2023-04-24T01:47:07;5.07;;;1.07;;
74967;SDS011;63523;51.880;12.630;2023-04-24T01:49:33;3.83;;;0.80;;
74967;SDS011;63523;51.880;12.630;2023-04-24T01:51:58;3.10;;;0.77;;
74967;SDS011;63523;51.880;12.630;2023-04-24T01:54:23;3.30;;;1.00;;
74967;SDS011;63523;51.880;12.630;2023-04-24T01:56:49;3.20;;;0.80;;
74967;SDS011;63523;51.880;12.630;2023-04-24T01:59:14;3.00;;;0.80;;
74967;SDS011;63523;51.880;12.630;2023-04-24T02:01:42;2.75;;;0.70;;
74967;SDS011;63523;51.880;12.630;2023-04-24T02:04:07;2.27;;;0.40;;
74967;SDS011;63523;51.880;12.630;2023-04-24T02:06:32;3.87;;;0.70;;
74967;SDS011;63523;51.880;12.630;2023-04-24T02:08:58;3.27;;;0.70;;
74967;SDS011;63523;51.880;12.630;2023-04-24T02:11:24;3.65;;;0.77;;
74967;SDS011;63523;51.880;12.630;2023-04-24T02:13:50;2.67;;;0.70;;
74967;SDS011;63523;51.880;12.630;2023-04-24T02:16:16;2.72;;;0.55;;
74967;SDS011;63523;51.880;12.630;2023-04-24T02:18:41;2.50;;;0.57;;
74967;SDS011;63523;51.880;12.630;2023-04-24T02:21:07;2.13;;;0.50;;
74967;SDS011;63523;51.880;12.630;2023-04-24T02:23:32;2.70;;;0.60;;
74967;SDS011;63523;51.880;12.630;2023-04-24T02:25:57;2.40;;;0.33;;
74967;SDS011;63523;51.880;12.630;2023-04-24T02:28:22;3.57;;;0.40;;
74967;SDS011;63523;51.880;12.630;2023-04-24T02:30:48;3.37;;;0.40;;
74967;SDS011;63523;51.880;12.630;2023-04-24T02:33:13;2.07;;;0.40;;
74967;SDS011;63523;51.880;12.630;2023-04-24T02:35:38;2.47;;;0.40;;
74967;SDS011;63523;51.880;12.630;2023-04-24T02:38:03;2.17;;;0.40;;
74967;SDS011;63523;51.880;12.630;2023-04-24T02:40:29;4.00;;;0.40;;
74967;SDS011;63523;51.880;12.630;2023-04-24T02:42:55;2.13;;;0.30;;
74967;SDS011;63523;51.880;12.630;2023-04-24T02:45:20;3.07;;;0.33;;
74967;SDS011;63523;51.880;12.630;2023-04-24T02:47:45;2.08;;;0.30;;
74967;SDS011;63523;51.880;12.630;2023-04-24T02:50:11;2.40;;;0.30;;
74967;SDS011;63523;51.880;12.630;2023-04-24T02:52:36;2.00;;;0.20;;
74967;SDS011;63523;51.880;12.630;2023-04-24T02:55:01;2.77;;;0.30;;
74967;SDS011;63523;51.880;12.630;2023-04-24T02:57:27;1.67;;;0.20;;
74967;SDS011;63523;51.880;12.630;2023-04-24T02:59:52;2.00;;;0.30;;
74967;SDS011;63523;51.880;12.630;2023-04-24T03:02:17;1.60;;;0.20;;
74967;SDS011;63523;51.880;12.630;2023-04-24T03:04:43;1.93;;;0.30;;
74967;SDS011;63523;51.880;12.630;2023-04-24T03:07:08;2.03;;;0.40;;
74967;SDS011;63523;51.880;12.630;2023-04-24T03:09:33;2.20;;;0.23;;
74967;SDS011;63523;51.880;12.630;2023-04-24T03:11:59;2.70;;;0.20;;
74967;SDS011;63523;51.880;12.630;2023-04-24T03:14:25;3.30;;;0.22;;
74967;SDS011;63523;51.880;12.630;2023-04-24T03:16:50;2.80;;;0.20;;
74967;SDS011;63523;51.880;12.630;2023-04-24T03:19:15;2.30;;;0.30;;
74967;SDS011;63523;51.880;12.630;2023-04-24T03:21:41;2.07;;;0.27;;
74967;SDS011;63523;51.880;12.630;2023-04-24T03:24:07;1.60;;;0.20;;
74967;SDS011;63523;51.880;12.630;2023-04-24T03:26:33;2.15;;;0.30;;
74967;SDS011;63523;51.880;12.630;2023-04-24T03:28:58;3.73;;;0.30;;
74967;SDS011;63523;51.880;12.630;2023-04-24T03:31:24;2.03;;;0.28;;
74967;SDS011;63523;51.880;12.630;2023-04-24T03:33:49;2.93;;;0.23;;
74967;SDS011;63523;51.880;12.630;2023-04-24T03:36:16;2.15;;;0.28;;
74967;SDS011;63523;51.880;12.630;2023-04-24T03:38:41;1.87;;;0.30;;
74967;SDS011;63523;51.880;12.630;2023-04-24T03:41:06;2.27;;;0.30;;
74967;SDS011;63523;51.880;12.630;2023-04-24T03:43:31;2.87;;;0.30;;
74967;SDS011;63523;51.880;12.630;2023-04-24T03:45:58;3.92;;;0.30;;
74967;SDS011;63523;51.880;12.630;2023-04-24T03:48:23;3.07;;;0.40;;
74967;SDS011;63523;51.880;12.630;2023-04-24T03:50:49;3.80;;;0.20;;
74967;SDS011;63523;51.880;12.630;2023-04-24T03:53:14;1.97;;;0.30;;
74967;SDS011;63523;51.880;12.630;2023-04-24T03:55:40;2.27;;;0.20;;
74967;SDS011;63523;51.880;12.630;2023-04-24T03:58:05;2.77;;;0.40;;
74967;SDS011;63523;51.880;12.630;2023-04-24T04:00:30;2.77;;;0.47;;
74967;SDS011;63523;51.880;12.630;2023-04-24T04:02:57;2.47;;;0.40;;
74967;SDS011;63523;51.880;12.630;2023-04-24T04:05:22;2.60;;;0.40;;
74967;SDS011;63523;51.880;12.630;2023-04-24T04:07:47;2.10;;;0.30;;
74967;SDS011;63523;51.880;12.630;2023-04-24T04:10:12;1.97;;;0.30;;
74967;SDS011;63523;51.880;12.630;2023-04-24T04:12:38;2.10;;;0.20;;
74967;SDS011;63523;51.880;12.630;2023-04-24T04:15:03;2.30;;;0.30;;
74967;SDS011;63523;51.880;12.630;2023-04-24T04:17:30;1.60;;;0.20;;
74967;SDS011;63523;51.880;12.630;2023-04-24T04:19:56;2.20;;;0.30;;
74967;SDS011;63523;51.880;12.630;2023-04-24T04:22:22;2.00;;;0.23;;
74967;SDS011;63523;51.880;12.630;2023-04-24T04:24:47;3.50;;;0.20;;
74967;SDS011;63523;51.880;12.630;2023-04-24T04:27:12;2.43;;;0.30;;
74967;SDS011;63523;51.880;12.630;2023-04-24T04:29:38;1.80;;;0.10;;
74967;SDS011;63523;51.880;12.630;2023-04-24T04:32:05;3.08;;;0.45;;
74967;SDS011;63523;51.880;12.630;2023-04-24T04:34:30;2.80;;;0.40;;
74967;SDS011;63523;51.880;12.630;2023-04-24T04:36:56;2.72;;;0.30;;
74967;SDS011;63523;51.880;12.630;2023-04-24T04:39:24;2.70;;;0.40;;
74967;SDS011;63523;51.880;12.630;2023-04-24T04:41:49;2.13;;;0.30;;
74967;SDS011;63523;51.880;12.630;2023-04-24T04:44:15;2.87;;;0.23;;
74967;SDS011;63523;51.880;12.630;2023-04-24T04:46:40;3.67;;;0.30;;
74967;SDS011;63523;51.880;12.630;2023-04-24T04:49:06;1.92;;;0.30;;
74967;SDS011;63523;51.880;12.630;2023-04-24T04:51:33;3.35;;;0.30;;
74967;SDS011;63523;51.880;12.630;2023-04-24T04:53:59;1.90;;;0.20;;
74967;SDS011;63523;51.880;12.630;2023-04-24T04:56:24;4.30;;;0.50;;
74967;SDS011;63523;51.880;12.630;2023-04-24T04:58:50;2.35;;;0.47;;
74967;SDS011;63523;51.880;12.630;2023-04-24T05:01:15;3.10;;;0.40;;
74967;SDS011;63523;51.880;12.630;2023-04-24T05:03:41;1.97;;;0.30;;
74967;SDS011;63523;51.880;12.630;2023-04-24T05:06:06;4.53;;;0.37;;
74967;SDS011;63523;51.880;12.630;2023-04-24T05:08:31;2.67;;;0.30;;
74967;SDS011;63523;51.880;12.630;2023-04-24T05:10:57;2.10;;;0.30;;
74967;SDS011;63523;51.880;12.630;2023-04-24T05:13:22;2.40;;;0.30;;
74967;SDS011;63523;51.880;12.630;2023-04-24T05:15:47;2.33;;;0.30;;
74967;SDS011;63523;51.880;12.630;2023-04-24T05:18:12;3.30;;;0.70;;
74967;SDS011;63523;51.880;12.630;2023-04-24T05:20:38;4.53;;;0.50;;
74967;SDS011;63523;51.880;12.630;2023-04-24T05:23:03;2.50;;;0.43;;
74967;SDS011;63523;51.880;12.630;2023-04-24T05:25:28;3.97;;;0.30;;
74967;SDS011;63523;51.880;12.630;2023-04-24T05:27:54;1.88;;;0.30;;
74967;SDS011;63523;51.880;12.630;2023-04-24T05:30:19;2.20;;;0.30;;
74967;SDS011;63523;51.880;12.630;2023-04-24T05:32:45;2.53;;;0.40;;
74967;SDS011;63523;51.880;12.630;2023-04-24T05:35:10;3.42;;;1.10;;
74967;SDS011;63523;51.880;12.630;2023-04-24T05:37:36;2.97;;;0.77;;
74967;SDS011;63523;51.880;12.630;2023-04-24T05:40:01;2.73;;;0.40;;
74967;SDS011;63523;51.880;12.630;2023-04-24T05:42:27;3.33;;;0.50;;
74967;SDS011;63523;51.880;12.630;2023-04-24T05:44:52;2.17;;;0.40;;
74967;SDS011;63523;51.880;12.630;2023-04-24T05:47:19;2.00;;;0.33;;
74967;SDS011;63523;51.880;12.630;2023-04-24T05:49:46;2.90;;;0.30;;
74967;SDS011;63523;51.880;12.630;2023-04-24T05:52:11;2.93;;;0.47;;
74967;SDS011;63523;51.880;12.630;2023-04-24T05:54:37;2.33;;;0.50;;
74967;SDS011;63523;51.880;12.630;2023-04-24T05:57:02;2.07;;;0.30;;
74967;SDS011;63523;51.880;12.630;2023-04-24T05:59:32;2.72;;;0.32;;
74967;SDS011;63523;51.880;12.630;2023-04-24T06:01:57;2.97;;;0.40;;
74967;SDS011;63523;51.880;12.630;2023-04-24T06:04:23;3.70;;;0.40;;
74967;SDS011;63523;51.880;12.630;2023-04-24T06:06:48;2.28;;;0.30;;
74967;SDS011;63523;51.880;12.630;2023-04-24T06:09:15;2.50;;;0.47;;
74967;SDS011;63523;51.880;12.630;2023-04-24T06:11:41;2.67;;;0.50;;
74967;SDS011;63523;51.880;12.630;2023-04-24T06:14:07;3.30;;;0.40;;
74967;SDS011;63523;51.880;12.630;2023-04-24T06:16:32;3.13;;;0.40;;
74967;SDS011;63523;51.880;12.630;2023-04-24T06:18:58;2.93;;;0.27;;
74967;SDS011;63523;51.880;12.630;2023-04-24T06:21:23;1.97;;;0.30;;
74967;SDS011;63523;51.880;12.630;2023-04-24T06:23:48;2.40;;;0.30;;
74967;SDS011;63523;51.880;12.630;2023-04-24T06:26:14;2.38;;;0.40;;
74967;SDS011;63523;51.880;12.630;2023-04-24T06:28:40;1.93;;;0.50;;
74967;SDS011;63523;51.880;12.630;2023-04-24T06:31:05;2.10;;;0.40;;
74967;SDS011;63523;51.880;12.630;2023-04-24T06:33:30;1.73;;;0.30;;
74967;SDS011;63523;51.880;12.630;2023-04-24T06:35:56;2.00;;;0.30;;
74967;SDS011;63523;51.880;12.630;2023-04-24T06:38:21;3.17;;;0.30;;
74967;SDS011;63523;51.880;12.630;2023-04-24T06:40:46;2.50;;;0.40;;
74967;SDS011;63523;51.880;12.630;2023-04-24T06:43:11;4.70;;;0.50;;
74967;SDS011;63523;51.880;12.630;2023-04-24T06:45:37;1.60;;;0.30;;
74967;SDS011;63523;51.880;12.630;2023-04-24T06:48:04;2.00;;;0.38;;
74967;SDS011;63523;51.880;12.630;2023-04-24T06:50:29;2.00;;;0.40;;
74967;SDS011;63523;51.880;12.630;2023-04-24T06:52:55;2.63;;;0.30;;
74967;SDS011;63523;51.880;12.630;2023-04-24T06:55:20;2.37;;;0.40;;
74967;SDS011;63523;51.880;12.630;2023-04-24T06:57:45;3.30;;;0.27;;
74967;SDS011;63523;51.880;12.630;2023-04-24T07:00:11;3.13;;;0.30;;
74967;SDS011;63523;51.880;12.630;2023-04-24T07:02:37;2.80;;;0.40;;
74967;SDS011;63523;51.880;12.630;2023-04-24T07:05:02;2.13;;;0.30;;
74967;SDS011;63523;51.880;12.630;2023-04-24T07:07:28;2.03;;;0.30;;
74967;SDS011;63523;51.880;12.630;2023-04-24T07:09:54;3.60;;;0.33;;
74967;SDS011;63523;51.880;12.630;2023-04-24T07:12:21;1.60;;;0.30;;
74967;SDS011;63523;51.880;12.630;2023-04-24T07:14:46;1.50;;;0.20;;
74967;SDS011;63523;51.880;12.630;2023-04-24T07:17:12;2.45;;;0.30;;
74967;SDS011;63523;51.880;12.630;2023-04-24T07:19:38;2.00;;;0.30;;
74967;SDS011;63523;51.880;12.630;2023-04-24T07:22:03;1.93;;;0.30;;
74967;SDS011;63523;51.880;12.630;2023-04-24T07:24:28;1.77;;;0.20;;
74967;SDS011;63523;51.880;12.630;2023-04-24T07:26:54;3.83;;;0.30;;
74967;SDS011;63523;51.880;12.630;2023-04-24T07:29:20;2.42;;;0.20;;
74967;SDS011;63523;51.880;12.630;2023-04-24T07:31:45;2.30;;;0.30;;
74967;SDS011;63523;51.880;12.630;2023-04-24T07:34:11;2.38;;;0.30;;
74967;SDS011;63523;51.880;12.630;2023-04-24T07:36:36;2.40;;;0.40;;
74967;SDS011;63523;51.880;12.630;2023-04-24T07:39:03;2.10;;;0.32;;
74967;SDS011;63523;51.880;12.630;2023-04-24T07:41:29;3.33;;;0.50;;
74967;SDS011;63523;51.880;12.630;2023-04-24T07:43:54;1.70;;;0.30;;
74967;SDS011;63523;51.880;12.630;2023-04-24T07:46:20;2.07;;;0.30;;
74967;SDS011;63523;51.880;12.630;2023-04-24T07:48:45;2.37;;;0.30;;
74967;SDS011;63523;51.880;12.630;2023-04-24T07:51:12;2.85;;;0.40;;
74967;SDS011;63523;51.880;12.630;2023-04-24T07:53:39;1.92;;;0.40;;
74967;SDS011;63523;51.880;12.630;2023-04-24T07:56:05;2.67;;;0.40;;
74967;SDS011;63523;51.880;12.630;2023-04-24T07:58:30;3.75;;;0.40;;
74967;SDS011;63523;51.880;12.630;2023-04-24T08:00:55;1.90;;;0.40;;
74967;SDS011;63523;51.880;12.630;2023-04-24T08:03:21;3.00;;;0.50;;
74967;SDS011;63523;51.880;12.630;2023-04-24T08:05:46;2.17;;;0.30;;
74967;SDS011;63523;51.880;12.630;2023-04-24T08:08:12;2.78;;;0.40;;
74967;SDS011;63523;51.880;12.630;2023-04-24T08:10:37;2.70;;;0.30;;
74967;SDS011;63523;51.880;12.630;2023-04-24T08:13:03;3.00;;;0.30;;
74967;SDS011;63523;51.880;12.630;2023-04-24T08:15:28;2.17;;;0.30;;
74967;SDS011;63523;51.880;12.630;2023-04-24T08:17:53;2.65;;;0.50;;
74967;SDS011;63523;51.880;12.630;2023-04-24T08:20:19;2.70;;;0.43;;
74967;SDS011;63523;51.880;12.630;2023-04-24T08:22:44;3.30;;;1.07;;
74967;SDS011;63523;51.880;12.630;2023-04-24T08:25:12;2.15;;;0.38;;
74967;SDS011;63523;51.880;12.630;2023-04-24T08:27:37;1.83;;;0.40;;
74967;SDS011;63523;51.880;12.630;2023-04-24T08:30:04;4.00;;;0.50;;
74967;SDS011;63523;51.880;12.630;2023-04-24T08:32:30;3.55;;;0.55;;
74967;SDS011;63523;51.880;12.630;2023-04-24T08:34:55;4.13;;;0.40;;
74967;SDS011;63523;51.880;12.630;2023-04-24T08:37:22;4.05;;;0.40;;
74967;SDS011;63523;51.880;12.630;2023-04-24T08:39:48;1.87;;;0.30;;
74967;SDS011;63523;51.880;12.630;2023-04-24T08:42:14;2.47;;;0.30;;
74967;SDS011;63523;51.880;12.630;2023-04-24T08:44:40;2.05;;;0.40;;
74967;SDS011;63523;51.880;12.630;2023-04-24T08:47:05;2.67;;;0.27;;
74967;SDS011;63523;51.880;12.630;2023-04-24T08:49:32;2.55;;;0.30;;
74967;SDS011;63523;51.880;12.630;2023-04-24T08:51:58;1.73;;;0.23;;
74967;SDS011;63523;51.880;12.630;2023-04-24T08:54:24;1.65;;;0.30;;
74967;SDS011;63523;51.880;12.630;2023-04-24T08:56:50;2.85;;;0.50;;
74967;SDS011;63523;51.880;12.630;2023-04-24T08:59:19;1.63;;;0.20;;
74967;SDS011;63523;51.880;12.630;2023-04-24T09:01:46;2.58;;;0.43;;
74967;SDS011;63523;51.880;12.630;2023-04-24T09:04:13;3.38;;;0.30;;
74967;SDS011;63523;51.880;12.630;2023-04-24T09:06:41;2.88;;;0.22;;
74967;SDS011;63523;51.880;12.630;2023-04-24T09:09:07;2.60;;;0.30;;
74967;SDS011;63523;51.880;12.630;2023-04-24T09:11:34;2.13;;;0.27;;
74967;SDS011;63523;51.880;12.630;2023-04-24T09:13:59;1.85;;;0.28;;
74967;SDS011;63523;51.880;12.630;2023-04-24T09:16:25;2.20;;;0.30;;
74967;SDS011;63523;51.880;12.630;2023-04-24T09:18:51;2.05;;;0.30;;
74967;SDS011;63523;51.880;12.630;2023-04-24T09:21:17;3.08;;;0.30;;
74967;SDS011;63523;51.880;12.630;2023-04-24T09:23:46;2.13;;;0.40;;
74967;SDS011;63523;51.880;12.630;2023-04-24T09:26:11;3.47;;;0.60;;
74967;SDS011;63523;51.880;12.630;2023-04-24T09:28:38;1.90;;;0.40;;
74967;SDS011;63523;51.880;12.630;2023-04-24T09:31:05;2.57;;;0.40;;
74967;SDS011;63523;51.880;12.630;2023-04-24T09:33:35;1.80;;;0.40;;
74967;SDS011;63523;51.880;12.630;2023-04-24T09:36:01;3.95;;;0.30;;
74967;SDS011;63523;51.880;12.630;2023-04-24T09:38:31;1.48;;;0.20;;
74967;SDS011;63523;51.880;12.630;2023-04-24T09:41:00;2.30;;;0.30;;
74967;SDS011;63523;51.880;12.630;2023-04-24T09:43:38;1.65;;;0.25;;
74967;SDS011;63523;51.880;12.630;2023-04-24T09:46:07;1.20;;;0.20;;
74967;SDS011;63523;51.880;12.630;2023-04-24T09:48:35;2.83;;;0.40;;
74967;SDS011;63523;51.880;12.630;2023-04-24T09:51:02;1.60;;;0.20;;
74967;SDS011;63523;51.880;12.630;2023-04-24T09:53:29;3.67;;;0.35;;
74967;SDS011;63523;51.880;12.630;2023-04-24T09:55:55;2.53;;;0.30;;
74967;SDS011;63523;51.880;12.630;2023-04-24T09:58:24;2.85;;;1.58;;
74967;SDS011;63523;51.880;12.630;2023-04-24T10:00:53;1.65;;;0.30;;
74967;SDS011;63523;51.880;12.630;2023-04-24T10:03:19;2.30;;;0.30;;
74967;SDS011;63523;51.880;12.630;2023-04-24T10:05:45;1.73;;;0.43;;
74967;SDS011;63523;51.880;12.630;2023-04-24T10:08:12;3.72;;;0.40;;
74967;SDS011;63523;51.880;12.630;2023-04-24T10:10:39;1.88;;;0.35;;
74967;SDS011;63523;51.880;12.630;2023-04-24T10:13:08;1.67;;;0.40;;
74967;SDS011;63523;51.880;12.630;2023-04-24T10:15:35;3.33;;;0.35;;
74967;SDS011;63523;51.880;12.630;2023-04-24T10:18:01;1.60;;;0.20;;
74967;SDS011;63523;51.880;12.630;2023-04-24T10:20:27;2.53;;;0.32;;
74967;SDS011;63523;51.880;12.630;2023-04-24T10:22:54;2.23;;;0.40;;
74967;SDS011;63523;51.880;12.630;2023-04-24T10:25:21;6.70;;;0.45;;
74967;SDS011;63523;51.880;12.630;2023-04-24T10:27:52;2.88;;;0.50;;
74967;SDS011;63523;51.880;12.630;2023-04-24T10:30:18;1.55;;;0.32;;
74967;SDS011;63523;51.880;12.630;2023-04-24T10:32:45;2.25;;;0.30;;
74967;SDS011;63523;51.880;12.630;2023-04-24T10:35:13;1.87;;;0.40;;
74967;SDS011;63523;51.880;12.630;2023-04-24T10:37:42;1.73;;;0.22;;
74967;SDS011;63523;51.880;12.630;2023-04-24T10:40:10;3.88;;;0.40;;
74967;SDS011;63523;51.880;12.630;2023-04-24T10:42:40;1.75;;;0.30;;
74967;SDS011;63523;51.880;12.630;2023-04-24T10:45:21;1.93;;;0.27;;
74967;SDS011;63523;51.880;12.630;2023-04-24T10:47:58;2.20;;;0.40;;
74967;SDS011;63523;51.880;12.630;2023-04-24T10:50:27;2.08;;;0.40;;
74967;SDS011;63523;51.880;12.630;2023-04-24T10:53:06;2.08;;;0.35;;
74967;SDS011;63523;51.880;12.630;2023-04-24T10:55:58;2.75;;;0.32;;
74967;SDS011;63523;51.880;12.630;2023-04-24T10:58:38;1.87;;;0.33;;
74967;SDS011;63523;51.880;12.630;2023-04-24T11:03:56;2.50;;;0.43;;
74967;SDS011;63523;51.880;12.630;2023-04-24T11:06:34;3.53;;;0.30;;
74967;SDS011;63523;51.880;12.630;2023-04-24T11:09:04;2.22;;;0.50;;
74967;SDS011;63523;51.880;12.630;2023-04-24T11:11:31;1.83;;;0.30;;
74967;SDS011;63523;51.880;12.630;2023-04-24T11:19:05;3.17;;;0.30;;
74967;SDS011;63523;51.880;12.630;2023-04-24T11:21:40;2.88;;;0.40;;
74967;SDS011;63523;51.880;12.630;2023-04-24T11:25:07;2.35;;;0.35;;
74967;SDS011;63523;51.880;12.630;2023-04-24T11:29:45;3.43;;;0.30;;
74967;SDS011;63523;51.880;12.630;2023-04-24T11:35:08;3.50;;;0.50;;
74967;SDS011;63523;51.880;12.630;2023-04-24T11:37:43;1.92;;;0.40;;
74967;SDS011;63523;51.880;12.630;2023-04-24T11:40:14;1.73;;;0.30;;
74967;SDS011;63523;51.880;12.630;2023-04-24T11:42:44;1.90;;;0.40;;
74967;SDS011;63523;51.880;12.630;2023-04-24T11:45:12;2.67;;;0.40;;
74967;SDS011;63523;51.880;12.630;2023-04-24T11:47:47;2.10;;;0.35;;
74967;SDS011;63523;51.880;12.630;2023-04-24T11:50:17;3.27;;;0.57;;
74967;SDS011;63523;51.880;12.630;2023-04-24T11:52:44;2.10;;;0.30;;
74967;SDS011;63523;51.880;12.630;2023-04-24T11:57:38;2.63;;;0.30;;
74967;SDS011;63523;51.880;12.630;2023-04-24T12:00:04;1.70;;;0.30;;
74967;SDS011;63523;51.880;12.630;2023-04-24T12:02:30;2.15;;;0.40;;
74967;SDS011;63523;51.880;12.630;2023-04-24T12:04:55;2.07;;;0.33;;
74967;SDS011;63523;51.880;12.630;2023-04-24T12:07:21;1.70;;;0.40;;
74967;SDS011;63523;51.880;12.630;2023-04-24T12:09:50;4.85;;;0.38;;
74967;SDS011;63523;51.880;12.630;2023-04-24T12:12:21;1.90;;;0.30;;
74967;SDS011;63523;51.880;12.630;2023-04-24T12:14:52;1.52;;;0.30;;
74967;SDS011;63523;51.880;12.630;2023-04-24T12:17:23;2.00;;;0.52;;
74967;SDS011;63523;51.880;12.630;2023-04-24T12:19:56;2.22;;;0.43;;
74967;SDS011;63523;51.880;12.630;2023-04-24T12:25:15;4.97;;;0.50;;
74967;SDS011;63523;51.880;12.630;2023-04-24T12:27:41;3.38;;;0.40;;
74967;SDS011;63523;51.880;12.630;2023-04-24T12:30:09;2.17;;;0.30;;
74967;SDS011;63523;51.880;12.630;2023-04-24T12:32:40;2.00;;;0.40;;
74967;SDS011;63523;51.880;12.630;2023-04-24T12:35:10;2.15;;;0.35;;
74967;SDS011;63523;51.880;12.630;2023-04-24T12:37:35;1.70;;;0.30;;
74967;SDS011;63523;51.880;12.630;2023-04-24T12:42:33;2.22;;;0.30;;
74967;SDS011;63523;51.880;12.630;2023-04-24T12:45:04;1.80;;;0.38;;
74967;SDS011;63523;51.880;12.630;2023-04-24T12:47:31;2.25;;;0.30;;
74967;SDS011;63523;51.880;12.630;2023-04-24T12:49:57;3.23;;;0.23;;
74967;SDS011;63523;51.880;12.630;2023-04-24T12:52:23;2.10;;;0.40;;
74967;SDS011;63523;51.880;12.630;2023-04-24T12:54:49;1.80;;;0.33;;
74967;SDS011;63523;51.880;12.630;2023-04-24T12:57:15;1.60;;;0.30;;
74967;SDS011;63523;51.880;12.630;2023-04-24T12:59:41;3.38;;;0.60;;
74967;SDS011;63523;51.880;12.630;2023-04-24T13:02:06;1.90;;;0.43;;
74967;SDS011;63523;51.880;12.630;2023-04-24T13:04:32;1.77;;;0.40;;
74967;SDS011;63523;51.880;12.630;2023-04-24T13:06:57;1.90;;;0.40;;
74967;SDS011;63523;51.880;12.630;2023-04-24T13:09:22;1.90;;;0.40;;
74967;SDS011;63523;51.880;12.630;2023-04-24T13:11:48;2.72;;;0.50;;
74967;SDS011;63523;51.880;12.630;2023-04-24T13:14:14;1.98;;;0.45;;
74967;SDS011;63523;51.880;12.630;2023-04-24T13:16:40;2.30;;;0.47;;
74967;SDS011;63523;51.880;12.630;2023-04-24T13:19:05;2.00;;;0.40;;
74967;SDS011;63523;51.880;12.630;2023-04-24T13:21:31;3.77;;;0.50;;
74967;SDS011;63523;51.880;12.630;2023-04-24T13:23:56;2.17;;;0.52;;
74967;SDS011;63523;51.880;12.630;2023-04-24T13:26:22;3.60;;;0.60;;
74967;SDS011;63523;51.880;12.630;2023-04-24T13:28:47;2.67;;;0.50;;
74967;SDS011;63523;51.880;12.630;2023-04-24T13:31:12;3.73;;;0.60;;
74967;SDS011;63523;51.880;12.630;2023-04-24T13:33:38;3.47;;;0.50;;
74967;SDS011;63523;51.880;12.630;2023-04-24T13:36:03;2.70;;;0.60;;
74967;SDS011;63523;51.880;12.630;2023-04-24T13:38:29;2.23;;;0.50;;
74967;SDS011;63523;51.880;12.630;2023-04-24T13:40:54;3.07;;;0.53;;
74967;SDS011;63523;51.880;12.630;2023-04-24T13:43:19;2.17;;;0.53;;
74967;SDS011;63523;51.880;12.630;2023-04-24T13:45:45;7.70;;;1.03;;
74967;SDS011;63523;51.880;12.630;2023-04-24T13:48:10;2.72;;;0.60;;
74967;SDS011;63523;51.880;12.630;2023-04-24T13:50:36;2.93;;;0.40;;
74967;SDS011;63523;51.880;12.630;2023-04-24T13:53:01;2.43;;;0.30;;
74967;SDS011;63523;51.880;12.630;2023-04-24T13:55:28;2.35;;;0.57;;
74967;SDS011;63523;51.880;12.630;2023-04-24T13:57:53;2.47;;;0.50;;
74967;SDS011;63523;51.880;12.630;2023-04-24T14:00:21;4.13;;;0.60;;
74967;SDS011;63523;51.880;12.630;2023-04-24T14:02:46;4.03;;;0.50;;
74967;SDS011;63523;51.880;12.630;2023-04-24T14:05:12;4.53;;;0.63;;
74967;SDS011;63523;51.880;12.630;2023-04-24T14:07:40;5.65;;;0.60;;
74967;SDS011;63523;51.880;12.630;2023-04-24T14:10:05;2.27;;;0.80;;
74967;SDS011;63523;51.880;12.630;2023-04-24T14:12:31;2.42;;;0.52;;
74967;SDS011;63523;51.880;12.630;2023-04-24T14:14:57;2.20;;;0.50;;
74967;SDS011;63523;51.880;12.630;2023-04-24T14:17:22;2.20;;;0.50;;
74967;SDS011;63523;51.880;12.630;2023-04-24T14:19:47;2.00;;;0.50;;
74967;SDS011;63523;51.880;12.630;2023-04-24T14:22:13;3.07;;;0.40;;
74967;SDS011;63523;51.880;12.630;2023-04-24T14:24:38;2.20;;;0.35;;
74967;SDS011;63523;51.880;12.630;2023-04-24T14:27:03;2.37;;;0.50;;
74967;SDS011;63523;51.880;12.630;2023-04-24T14:29:29;2.57;;;0.40;;
74967;SDS011;63523;51.880;12.630;2023-04-24T14:31:54;2.53;;;0.40;;
74967;SDS011;63523;51.880;12.630;2023-04-24T14:34:19;3.03;;;0.30;;
74967;SDS011;63523;51.880;12.630;2023-04-24T14:36:45;1.80;;;0.30;;
74967;SDS011;63523;51.880;12.630;2023-04-24T14:39:10;2.10;;;0.33;;
74967;SDS011;63523;51.880;12.630;2023-04-24T14:41:35;1.75;;;0.40;;
74967;SDS011;63523;51.880;12.630;2023-04-24T14:44:02;3.70;;;0.50;;
74967;SDS011;63523;51.880;12.630;2023-04-24T14:46:28;2.10;;;0.47;;
74967;SDS011;63523;51.880;12.630;2023-04-24T14:48:55;2.67;;;0.50;;